createdAt,value
2022-09-28T00:01:24.407Z,464.10
2022-09-28T00:03:54.460Z,378.33
2022-09-28T00:06:24.390Z,468.63
2022-09-28T00:08:52.650Z,532.40
2022-09-28T00:11:21.856Z,407.97
2022-09-28T00:13:52.450Z,419.87
2022-09-28T00:16:22.344Z,418.47
2022-09-28T00:18:51.189Z,507.50
2022-09-28T00:21:21.563Z,482.33
2022-09-28T00:24:07.088Z,472.20
2022-09-28T00:26:35.095Z,467.70
2022-09-28T00:29:04.641Z,421.57
2022-09-28T00:32:02.121Z,471.83
2022-09-28T00:34:32.915Z,521.20
2022-09-28T00:37:02.064Z,446.67
2022-09-28T00:39:31.633Z,467.83
2022-09-28T00:42:00.094Z,432.53
2022-09-28T00:44:41.954Z,473.73
2022-09-28T00:47:27.103Z,399.03
2022-09-28T00:49:58.355Z,518.80
2022-09-28T00:52:29.020Z,455.00
2022-09-28T00:54:57.863Z,494.97
2022-09-28T00:57:25.857Z,520.83
2022-09-28T00:59:55.548Z,387.13
2022-09-28T01:02:23.617Z,420.87
2022-09-28T01:04:52.217Z,461.40
2022-09-28T01:07:20.511Z,470.13
2022-09-28T01:09:49.259Z,480.43
2022-09-28T01:12:17.842Z,470.07
2022-09-28T01:14:46.112Z,461.93
2022-09-28T01:17:16.994Z,505.10
2022-09-28T01:20:24.167Z,554.30
2022-09-28T01:23:19.045Z,470.00
2022-09-28T01:25:53.070Z,544.83
2022-09-28T01:28:24.909Z,519.83
2022-09-28T01:30:59.779Z,493.40
2022-09-28T01:33:31.587Z,539.93
2022-09-28T01:36:04.180Z,472.87
2022-09-28T01:38:35.313Z,494.20
2022-09-28T01:41:04.385Z,557.13
2022-09-28T01:43:37.817Z,555.70
2022-09-28T01:46:11.478Z,525.13
2022-09-28T01:48:43.420Z,506.70
2022-09-28T01:51:14.786Z,475.20
2022-09-28T01:53:45.921Z,593.43
2022-09-28T01:56:20.129Z,523.93
2022-09-28T01:58:51.774Z,551.13
2022-09-28T02:01:24.561Z,470.50
2022-09-28T02:03:56.401Z,478.97
2022-09-28T02:06:28.287Z,462.10
2022-09-28T02:09:00.339Z,429.63
2022-09-28T02:11:39.827Z,504.30
2022-09-28T02:14:11.013Z,511.30
2022-09-28T02:16:41.692Z,538.07
2022-09-28T02:19:12.145Z,531.53
2022-09-28T02:21:43.142Z,517.53
2022-09-28T02:24:21.206Z,533.03
2022-09-28T02:26:51.199Z,569.57
2022-09-28T02:29:20.512Z,536.20
2022-09-28T02:31:48.526Z,504.17
2022-09-28T02:34:16.588Z,526.63
2022-09-28T02:36:45.697Z,537.13
2022-09-28T02:39:15.145Z,526.23
2022-09-28T02:41:51.617Z,502.80
2022-09-28T02:44:41.644Z,567.30
2022-09-28T02:47:17.228Z,527.70
2022-09-28T02:49:49.376Z,514.23
2022-09-28T02:52:30.940Z,480.43
2022-09-28T02:55:15.715Z,426.87
2022-09-28T02:57:50.885Z,479.23
2022-09-28T03:00:22.738Z,469.87
2022-09-28T03:03:13.126Z,471.67
2022-09-28T03:05:49.100Z,462.83
2022-09-28T03:08:21.560Z,489.93
2022-09-28T03:10:51.835Z,486.37
2022-09-28T03:13:20.873Z,458.00
2022-09-28T03:15:50.522Z,480.83
2022-09-28T03:18:19.284Z,514.50
2022-09-28T03:20:49.472Z,486.77
2022-09-28T03:23:24.915Z,500.10
2022-09-28T03:25:53.683Z,419.80
2022-09-28T03:28:22.684Z,538.43
2022-09-28T03:30:52.056Z,543.20
2022-09-28T03:33:20.374Z,446.33
2022-09-28T03:35:49.185Z,547.80
2022-09-28T03:38:18.190Z,533.33
2022-09-28T03:40:54.030Z,436.00
2022-09-28T03:43:22.120Z,451.60
2022-09-28T03:45:55.610Z,474.63
2022-09-28T03:48:28.796Z,483.77
2022-09-28T03:51:01.193Z,527.97
2022-09-28T03:53:29.911Z,453.33
2022-09-28T03:56:03.809Z,456.47
2022-09-28T03:58:32.927Z,471.17
2022-09-28T04:01:06.492Z,477.17
2022-09-28T04:03:34.969Z,478.77
2022-09-28T04:06:02.935Z,472.50
2022-09-28T04:08:31.481Z,459.77
2022-09-28T04:11:00.283Z,452.43
2022-09-28T04:13:29.309Z,398.97
2022-09-28T04:15:59.831Z,447.83
2022-09-28T04:18:32.557Z,459.47
2022-09-28T04:21:21.323Z,439.33
2022-09-28T04:23:59.445Z,414.83
2022-09-28T04:26:28.723Z,533.87
2022-09-28T04:29:24.069Z,493.97
2022-09-28T04:31:57.379Z,486.73
2022-09-28T04:34:41.956Z,451.07
2022-09-28T04:37:12.701Z,458.27
2022-09-28T04:39:45.022Z,493.00
2022-09-28T04:42:17.554Z,502.83
2022-09-28T04:44:46.104Z,419.00
2022-09-28T04:47:14.331Z,488.23
2022-09-28T04:49:52.388Z,467.47
2022-09-28T04:52:27.260Z,452.40
2022-09-28T04:54:55.206Z,436.37
2022-09-28T04:57:24.174Z,502.83
2022-09-28T04:59:52.153Z,401.50
2022-09-28T05:02:20.441Z,429.53
2022-09-28T05:05:12.925Z,406.70
2022-09-28T05:08:10.082Z,374.57
2022-09-28T05:10:40.414Z,407.47
2022-09-28T05:13:08.630Z,420.83
2022-09-28T05:15:37.264Z,358.23
2022-09-28T05:18:06.019Z,429.23
2022-09-28T05:20:50.573Z,376.53
2022-09-28T05:23:18.820Z,379.23
2022-09-28T05:25:47.154Z,405.07
2022-09-28T05:28:28.465Z,397.27
2022-09-28T05:31:19.461Z,390.90
2022-09-28T05:34:10.792Z,409.23
2022-09-28T05:36:42.731Z,355.33
2022-09-28T05:39:10.799Z,316.47
2022-09-28T05:41:38.960Z,382.47
2022-09-28T05:44:06.953Z,380.43
2022-09-28T05:46:36.176Z,360.93
2022-09-28T05:49:04.562Z,316.73
2022-09-28T05:51:32.535Z,332.30
2022-09-28T05:54:05.637Z,298.53
2022-09-28T05:56:59.570Z,309.07
2022-09-28T05:59:30.209Z,299.97
2022-09-28T06:01:58.422Z,327.70
2022-09-28T06:04:27.254Z,348.87
2022-09-28T06:06:55.283Z,353.00
2022-09-28T06:09:26.080Z,322.40
2022-09-28T06:11:56.982Z,317.57
2022-09-28T06:14:31.236Z,315.33
2022-09-28T06:16:59.349Z,317.73
2022-09-28T06:19:27.336Z,314.10
2022-09-28T06:22:13.671Z,269.30
2022-09-28T06:24:50.130Z,266.57
2022-09-28T06:27:18.336Z,293.53
2022-09-28T06:29:46.362Z,328.57
2022-09-28T06:32:14.357Z,359.87
2022-09-28T06:34:44.214Z,340.27
2022-09-28T06:37:12.259Z,309.03
2022-09-28T06:39:40.273Z,332.53
2022-09-28T06:42:10.292Z,354.03
2022-09-28T06:45:14.844Z,336.07
2022-09-28T06:48:02.936Z,361.00
2022-09-28T06:50:41.018Z,344.67
2022-09-28T06:53:15.638Z,293.93
2022-09-28T06:55:58.009Z,377.80
2022-09-28T06:58:28.209Z,324.07
2022-09-28T07:00:59.996Z,356.53
2022-09-28T07:03:29.859Z,361.50
2022-09-28T07:06:31.460Z,840.83
2022-09-28T07:09:32.668Z,451.00
2022-09-28T07:12:04.260Z,333.20
2022-09-28T07:14:48.033Z,336.87
2022-09-28T07:17:17.028Z,327.13
2022-09-28T07:19:44.964Z,355.57
2022-09-28T07:22:18.520Z,358.30
2022-09-28T07:24:48.412Z,390.10
2022-09-28T07:27:35.218Z,330.93
2022-09-28T07:30:22.979Z,384.13
2022-09-28T07:33:14.412Z,443.37
2022-09-28T07:36:06.383Z,326.30
2022-09-28T07:38:35.276Z,394.10
2022-09-28T07:41:12.811Z,389.17
2022-09-28T07:43:46.775Z,348.50
2022-09-28T07:46:17.484Z,350.90
2022-09-28T07:48:56.017Z,364.20
2022-09-28T07:51:44.244Z,376.23
2022-09-28T07:54:39.440Z,346.70
2022-09-28T07:57:18.333Z,293.43
2022-09-28T08:00:00.256Z,304.50
2022-09-28T08:02:32.960Z,335.90
2022-09-28T08:05:00.944Z,355.63
2022-09-28T08:07:29.002Z,321.07
2022-09-28T08:10:04.232Z,236.43
2022-09-28T08:12:57.208Z,310.60
2022-09-28T08:15:43.651Z,290.00
2022-09-28T08:18:24.643Z,362.43
2022-09-28T08:21:11.097Z,296.07
2022-09-28T08:23:39.493Z,259.07
2022-09-28T08:26:12.077Z,275.50
2022-09-28T08:28:43.221Z,300.07
2022-09-28T08:31:31.216Z,268.23
2022-09-28T08:34:19.346Z,252.27
2022-09-28T08:37:07.512Z,286.83
2022-09-28T08:39:55.731Z,246.10
2022-09-28T08:43:19.002Z,270.13
2022-09-28T08:46:14.780Z,271.63
2022-09-28T08:49:25.634Z,257.33
2022-09-28T08:52:12.484Z,264.23
2022-09-28T08:54:57.051Z,253.97
2022-09-28T08:57:35.228Z,272.80
2022-09-28T09:00:10.879Z,411.50
2022-09-28T09:02:42.339Z,220.17
2022-09-28T09:05:22.267Z,158.97
2022-09-28T09:08:19.764Z,167.77
2022-09-28T09:10:51.236Z,204.53
2022-09-28T09:13:49.056Z,213.03
2022-09-28T09:16:29.484Z,187.30
2022-09-28T09:19:37.083Z,254.27
2022-09-28T09:22:17.611Z,212.47
2022-09-28T09:24:52.075Z,263.33
2022-09-28T09:27:39.525Z,311.50
2022-09-28T09:30:11.888Z,337.03
2022-09-28T09:32:54.236Z,166.60
2022-09-28T09:35:47.706Z,224.17
2022-09-28T09:38:42.965Z,285.10
2022-09-28T09:41:41.212Z,302.33
2022-09-28T09:44:38.789Z,255.03
2022-09-28T09:47:36.402Z,351.33
2022-09-28T09:50:29.689Z,398.07
2022-09-28T09:53:03.107Z,315.77
2022-09-28T09:55:33.034Z,331.33
2022-09-28T09:58:21.777Z,299.43
2022-09-28T10:00:57.202Z,298.03
2022-09-28T10:03:48.177Z,264.97
2022-09-28T10:06:21.764Z,249.87
2022-09-28T10:08:53.879Z,243.60
2022-09-28T10:11:23.717Z,219.23
2022-09-28T10:13:57.743Z,163.90
2022-09-28T10:16:48.094Z,154.90
2022-09-28T10:19:30.234Z,148.70
2022-09-28T10:22:06.599Z,128.97
2022-09-28T10:24:37.823Z,137.47
2022-09-28T10:27:07.502Z,146.17
2022-09-28T10:29:44.238Z,149.80
2022-09-28T10:32:21.647Z,127.73
2022-09-28T10:34:52.257Z,128.27
2022-09-28T10:37:24.343Z,106.07
2022-09-28T10:40:30.297Z,85.43
2022-09-28T10:43:03.569Z,85.40
2022-09-28T10:45:36.882Z,92.90
2022-09-28T10:48:14.669Z,67.87
2022-09-28T10:50:43.579Z,78.83
2022-09-28T10:53:19.488Z,92.70
2022-09-28T10:56:08.695Z,91.23
2022-09-28T10:58:40.532Z,61.23
2022-09-28T11:01:15.488Z,70.53
2022-09-28T11:03:51.706Z,62.53
2022-09-28T11:06:26.232Z,83.37
2022-09-28T11:08:55.787Z,57.37
2022-09-28T11:11:24.596Z,64.07
2022-09-28T11:14:02.747Z,50.23
2022-09-28T11:16:37.197Z,59.03
2022-09-28T11:19:28.493Z,51.53
2022-09-28T11:21:56.588Z,43.30
2022-09-28T11:24:33.023Z,42.17
2022-09-28T11:27:04.097Z,38.00
2022-09-28T11:29:36.985Z,30.90
2022-09-28T11:32:18.958Z,33.50
2022-09-28T11:35:06.165Z,26.70
2022-09-28T11:37:51.607Z,27.13
2022-09-28T11:40:43.498Z,30.30
2022-09-28T11:43:16.876Z,31.90
2022-09-28T11:45:51.090Z,25.37
2022-09-28T11:48:23.758Z,27.77
2022-09-28T11:50:54.270Z,25.73
2022-09-28T11:53:27.191Z,18.50
2022-09-28T11:56:08.919Z,15.93
2022-09-28T11:58:40.782Z,14.73
2022-09-28T12:01:19.021Z,14.97
2022-09-28T12:04:19.030Z,14.70
2022-09-28T12:06:51.915Z,15.67
2022-09-28T12:09:25.439Z,14.70
2022-09-28T12:12:25.284Z,9.07
2022-09-28T12:14:58.584Z,9.03
2022-09-28T12:17:30.768Z,8.20
2022-09-28T12:20:03.994Z,7.40
2022-09-28T12:22:34.142Z,7.07
2022-09-28T12:25:03.282Z,6.90
2022-09-28T12:27:38.815Z,6.63
2022-09-28T12:30:13.950Z,8.20
2022-09-28T12:32:45.624Z,8.33
2022-09-28T12:35:16.773Z,8.87
2022-09-28T12:37:56.775Z,7.67
2022-09-28T12:40:34.521Z,5.63
2022-09-28T12:43:26.278Z,6.47
2022-09-28T12:46:12.783Z,5.53
2022-09-28T12:49:47.282Z,4.73
2022-09-28T12:51:52.296Z,5.93
2022-09-28T12:54:45.832Z,5.53
2022-09-28T12:57:31.283Z,5.47
2022-09-28T13:00:04.712Z,7.40
2022-09-28T13:02:58.882Z,6.80
2022-09-28T13:05:55.788Z,6.83
2022-09-28T13:08:31.439Z,8.20
2022-09-28T13:11:08.024Z,9.50
2022-09-28T13:13:44.879Z,7.17
2022-09-28T13:16:17.628Z,6.40
2022-09-28T13:18:50.382Z,6.67
2022-09-28T13:21:24.272Z,6.20
2022-09-28T13:24:08.784Z,6.13
2022-09-28T13:26:46.048Z,5.70
2022-09-28T13:29:15.912Z,4.97
2022-09-28T13:31:51.549Z,5.13
2022-09-28T13:34:22.632Z,4.70
2022-09-28T13:37:09.972Z,4.50
2022-09-28T13:39:56.404Z,4.37
2022-09-28T13:42:29.255Z,4.60
2022-09-28T13:45:19.880Z,4.63
2022-09-28T13:47:59.640Z,4.37
2022-09-28T13:50:38.561Z,4.57
2022-09-28T13:53:16.353Z,4.20
2022-09-28T13:55:57.383Z,4.20
2022-09-28T13:58:27.254Z,4.13
2022-09-28T14:00:59.334Z,4.27
2022-09-28T14:03:29.365Z,4.63
2022-09-28T14:06:11.482Z,3.93
2022-09-28T14:08:41.319Z,4.50
2022-09-28T14:11:42.499Z,3.93
2022-09-28T14:14:29.253Z,3.70
2022-09-28T14:17:33.155Z,3.67
2022-09-28T14:20:04.085Z,3.77
2022-09-28T14:22:37.524Z,3.73
2022-09-28T14:25:10.332Z,3.40
2022-09-28T14:28:04.930Z,3.77
2022-09-28T14:30:47.732Z,3.63
2022-09-28T14:33:25.600Z,3.60
2022-09-28T14:35:56.500Z,3.97
2022-09-28T14:38:44.339Z,4.00
2022-09-28T14:41:27.062Z,3.70
2022-09-28T14:44:02.717Z,3.70
2022-09-28T14:46:33.543Z,3.50
2022-09-28T14:49:03.264Z,3.60
2022-09-28T14:52:07.810Z,3.73
2022-09-28T14:54:46.489Z,3.63
2022-09-28T14:57:18.781Z,3.47
2022-09-28T14:59:48.574Z,3.47
2022-09-28T15:02:26.924Z,3.90
2022-09-28T15:04:59.888Z,3.37
2022-09-28T15:07:54.295Z,3.30
2022-09-28T15:10:28.249Z,3.83
2022-09-28T15:12:57.208Z,3.90
2022-09-28T15:15:29.815Z,3.40
2022-09-28T15:18:17.860Z,4.10
2022-09-28T15:20:48.343Z,4.10
2022-09-28T15:23:28.606Z,4.10
2022-09-28T15:25:56.910Z,4.03
2022-09-28T15:28:25.449Z,8.63
2022-09-28T15:31:00.797Z,4.33
2022-09-28T15:33:47.696Z,4.10
2022-09-28T15:36:19.399Z,3.87
2022-09-28T15:38:53.716Z,3.50
2022-09-28T15:41:24.483Z,3.87
2022-09-28T15:44:08.483Z,4.00
2022-09-28T15:46:40.372Z,4.40
2022-09-28T15:49:08.929Z,4.13
2022-09-28T15:51:47.798Z,4.40
2022-09-28T15:54:19.637Z,4.00
2022-09-28T15:56:53.618Z,4.13
2022-09-28T15:59:27.733Z,4.10
2022-09-28T16:02:12.007Z,4.40
2022-09-28T16:04:41.775Z,4.40
2022-09-28T16:07:28.357Z,4.10
2022-09-28T16:09:58.672Z,4.07
2022-09-28T16:12:31.842Z,4.60
2022-09-28T16:15:00.980Z,4.33
2022-09-28T16:17:32.397Z,4.53
2022-09-28T16:20:03.195Z,4.30
2022-09-28T16:22:32.790Z,4.43
2022-09-28T16:25:01.906Z,4.47
2022-09-28T16:27:40.752Z,4.67
2022-09-28T16:30:20.151Z,5.07
2022-09-28T16:32:53.721Z,4.70
2022-09-28T16:35:25.411Z,4.67
2022-09-28T16:38:11.843Z,4.87
2022-09-28T16:40:41.251Z,5.57
2022-09-28T16:43:10.612Z,5.40
2022-09-28T16:45:38.912Z,5.80
2022-09-28T16:48:10.057Z,6.00
2022-09-28T16:50:38.043Z,6.30
2022-09-28T16:53:31.469Z,5.57
2022-09-28T16:56:00.036Z,6.60
2022-09-28T16:58:28.885Z,38.60
2022-09-28T17:00:57.688Z,8.17
2022-09-28T17:03:27.961Z,7.10
2022-09-28T17:05:56.531Z,6.10
2022-09-28T17:08:25.875Z,6.13
2022-09-28T17:11:13.575Z,6.97
2022-09-28T17:13:43.688Z,6.03
2022-09-28T17:16:14.639Z,7.57
2022-09-28T17:18:44.371Z,7.30
2022-09-28T17:21:15.705Z,8.63
2022-09-28T17:23:43.909Z,7.90
2022-09-28T17:26:17.961Z,9.10
2022-09-28T17:28:45.970Z,8.10
2022-09-28T17:31:15.589Z,9.10
2022-09-28T17:33:45.363Z,10.87
2022-09-28T17:36:16.329Z,9.50
2022-09-28T17:38:45.241Z,9.50
2022-09-28T17:41:19.454Z,9.30
2022-09-28T17:43:48.616Z,9.30
2022-09-28T17:46:28.303Z,12.40
2022-09-28T17:48:59.689Z,12.67
2022-09-28T17:51:28.968Z,11.67
2022-09-28T17:53:58.646Z,12.53
2022-09-28T17:56:31.637Z,12.33
2022-09-28T17:59:40.464Z,10.40
2022-09-28T18:02:10.903Z,12.40
2022-09-28T18:04:51.775Z,13.77
2022-09-28T18:07:20.389Z,15.07
2022-09-28T18:09:48.965Z,15.23
2022-09-28T18:12:17.059Z,19.47
2022-09-28T18:14:45.111Z,22.77
2022-09-28T18:17:13.200Z,16.30
2022-09-28T18:19:42.665Z,13.67
2022-09-28T18:22:10.694Z,17.53
2022-09-28T18:24:38.885Z,11.50
2022-09-28T18:27:06.942Z,16.43
2022-09-28T18:29:35.011Z,15.97
2022-09-28T18:32:03.389Z,19.27
2022-09-28T18:34:31.443Z,21.60
2022-09-28T18:37:00.870Z,23.07
2022-09-28T18:39:28.995Z,15.67
2022-09-28T18:41:57.333Z,18.37
2022-09-28T18:44:25.359Z,22.77
2022-09-28T18:46:53.511Z,20.00
2022-09-28T18:49:21.622Z,16.43
2022-09-28T18:51:49.698Z,17.57
2022-09-28T18:54:19.626Z,13.67
2022-09-28T18:56:47.618Z,15.80
2022-09-28T18:59:15.888Z,23.37
2022-09-28T19:01:44.059Z,21.33
2022-09-28T19:04:13.549Z,22.40
2022-09-28T19:06:44.574Z,24.53
2022-09-28T19:09:13.246Z,30.53
2022-09-28T19:11:42.806Z,27.53
2022-09-28T19:14:15.032Z,35.83
2022-09-28T19:16:43.966Z,31.80
2022-09-28T19:19:13.754Z,35.67
2022-09-28T19:21:43.339Z,40.57
2022-09-28T19:24:13.718Z,34.60
2022-09-28T19:26:43.582Z,47.07
2022-09-28T19:29:11.974Z,49.93
2022-09-28T19:31:40.527Z,48.13
2022-09-28T19:34:11.822Z,45.63
2022-09-28T19:36:42.692Z,41.10
2022-09-28T19:39:14.740Z,41.37
2022-09-28T19:41:49.302Z,41.10
2022-09-28T19:44:24.923Z,42.03
2022-09-28T19:46:54.675Z,44.23
2022-09-28T19:49:23.417Z,48.03
2022-09-28T19:52:12.211Z,41.60
2022-09-28T19:54:43.894Z,34.47
2022-09-28T19:57:15.830Z,46.70
2022-09-28T19:59:44.226Z,47.00
2022-09-28T20:02:13.331Z,47.13
2022-09-28T20:04:41.634Z,50.33
2022-09-28T20:07:09.743Z,39.93
2022-09-28T20:09:37.836Z,33.30
2022-09-28T20:12:06.161Z,36.80
2022-09-28T20:14:39.625Z,34.83
2022-09-28T20:17:08.790Z,29.57
2022-09-28T20:19:36.945Z,34.67
2022-09-28T20:22:05.234Z,32.00
2022-09-28T20:24:33.546Z,29.10
2022-09-28T20:27:02.536Z,36.37
2022-09-28T20:29:31.606Z,40.27
2022-09-28T20:32:01.447Z,41.97
2022-09-28T20:34:29.475Z,35.03
2022-09-28T20:36:57.594Z,37.50
2022-09-28T20:39:26.467Z,41.83
2022-09-28T20:41:56.289Z,39.30
2022-09-28T20:44:24.367Z,29.17
2022-09-28T20:46:52.552Z,29.27
2022-09-28T20:49:21.924Z,29.93
2022-09-28T20:51:49.954Z,37.23
2022-09-28T20:54:18.040Z,37.97
2022-09-28T20:56:48.154Z,42.80
2022-09-28T20:59:16.325Z,42.20
2022-09-28T21:01:44.509Z,34.73
2022-09-28T21:04:40.125Z,29.43
2022-09-28T21:07:08.861Z,28.93
2022-09-28T21:09:37.750Z,30.70
2022-09-28T21:12:06.065Z,34.40
2022-09-28T21:14:34.176Z,29.37
2022-09-28T21:17:02.244Z,29.27
2022-09-28T21:19:30.281Z,46.17
2022-09-28T21:21:59.625Z,50.10
2022-09-28T21:24:27.658Z,38.23
2022-09-28T21:26:56.019Z,38.87
2022-09-28T21:29:24.039Z,39.40
2022-09-28T21:31:52.058Z,34.47
2022-09-28T21:34:21.656Z,39.13
2022-09-28T21:36:51.267Z,43.73
2022-09-28T21:39:21.109Z,39.97
2022-09-28T21:41:49.181Z,36.13
2022-09-28T21:44:17.263Z,41.13
2022-09-28T21:46:45.459Z,48.37
2022-09-28T21:49:14.282Z,47.43
2022-09-28T21:51:42.253Z,52.07
2022-09-28T21:54:11.989Z,42.80
2022-09-28T21:56:41.549Z,45.87
2022-09-28T21:59:09.553Z,38.23
2022-09-28T22:01:37.632Z,45.43
2022-09-28T22:04:05.862Z,60.73
2022-09-28T22:06:35.048Z,61.40
2022-09-28T22:09:03.158Z,55.20
2022-09-28T22:11:31.180Z,61.30
2022-09-28T22:14:01.035Z,59.90
2022-09-28T22:16:30.774Z,50.03
2022-09-28T22:18:59.309Z,44.37
2022-09-28T22:21:28.663Z,52.53
2022-09-28T22:24:00.849Z,58.87
2022-09-28T22:26:30.340Z,58.00
2022-09-28T22:29:00.981Z,60.73
2022-09-28T22:31:30.148Z,67.13
2022-09-28T22:33:58.311Z,63.60
2022-09-28T22:36:26.551Z,55.93
2022-09-28T22:38:55.515Z,53.20
2022-09-28T22:41:23.530Z,71.87
2022-09-28T22:43:52.967Z,71.30
2022-09-28T22:46:23.880Z,70.07
2022-09-28T22:48:53.642Z,81.60
2022-09-28T22:51:22.432Z,76.67
2022-09-28T22:53:50.608Z,42.00
2022-09-28T22:56:19.402Z,48.00
2022-09-28T22:58:47.679Z,62.93
2022-09-28T23:01:17.797Z,65.17
2022-09-28T23:03:47.484Z,82.40
2022-09-28T23:06:17.471Z,91.77
2022-09-28T23:08:45.978Z,72.00
2022-09-28T23:11:14.145Z,70.57
2022-09-28T23:13:42.210Z,65.63
2022-09-28T23:16:12.640Z,87.33
2022-09-28T23:18:41.929Z,90.93
2022-09-28T23:21:15.221Z,79.40
2022-09-28T23:23:43.311Z,116.53
2022-09-28T23:26:12.717Z,81.20
2022-09-28T23:28:40.888Z,63.60
2022-09-28T23:31:09.991Z,105.90
2022-09-28T23:33:38.029Z,87.80
2022-09-28T23:36:06.748Z,131.17
2022-09-28T23:38:36.336Z,97.67
2022-09-28T23:41:04.411Z,91.17
2022-09-28T23:43:32.410Z,129.67
2022-09-28T23:46:00.508Z,133.63
2022-09-28T23:48:28.544Z,118.97
2022-09-28T23:50:56.602Z,132.40
2022-09-28T23:53:24.606Z,129.70
2022-09-28T23:55:53.927Z,116.77
2022-09-28T23:58:22.363Z,106.47
